Time;durP1;ratioP1;P1;durP2;ratioP2;P2;SDS_P1;SDS_P2;PMS_P1;PMS_P2;Temp;Humidity;BMP_temperature;BMP_pressure;BME280_temperature;BME280_humidity;BME280_pressure;Samples;Min_cycle;Max_cycle;Signal;HPM_P1;HPM_P2
2023/08/18 00:01:38;;;;;;;;;;;20.60;71.70;;;;;;5114240;28;20287;-65
2023/08/18 00:04:04;;;;;;;;;;;20.60;71.60;;;;;;5115120;28;19972;-65
2023/08/18 00:06:29;;;;;;;;;;;20.60;71.60;;;;;;5115185;28;19923;-66
2023/08/18 00:08:55;;;;;;;;;;;20.60;71.60;;;;;;5115063;27;19964;-65
2023/08/18 00:11:20;;;;;;;;;;;20.60;71.60;;;;;;5113830;28;19920;-65
2023/08/18 00:13:46;;;;;;;;;;;20.60;71.60;;;;;;5114121;28;19926;-65
2023/08/18 00:16:12;;;;;;;;;;;20.60;71.60;;;;;;5113233;28;19920;-65
2023/08/18 00:18:37;;;;;;;;;;;20.60;71.60;;;;;;5113408;28;19997;-65
2023/08/18 00:21:02;;;;;;;;;;;20.60;71.70;;;;;;5114866;28;19924;-65
2023/08/18 00:23:28;;;;;;;;;;;20.60;71.60;;;;;;5114964;28;19920;-65
2023/08/18 00:25:53;;;;;;;;;;;20.60;71.70;;;;;;5113779;28;20018;-65
2023/08/18 00:28:19;;;;;;;;;;;20.60;71.70;;;;;;5113420;28;19930;-65
2023/08/18 00:30:45;;;;;;;;;;;20.60;71.70;;;;;;5148167;27;19927;-65
2023/08/18 00:33:11;;;;;;;;;;;20.60;71.70;;;;;;5113776;28;20037;-70
2023/08/18 00:35:37;;;;;;;;;;;20.60;71.70;;;;;;5113270;28;19920;-65
2023/08/18 00:38:02;;;;;;;;;;;20.60;71.70;;;;;;5113436;28;19972;-67
2023/08/18 00:40:28;;;;;;;;;;;20.60;71.70;;;;;;5112455;28;20059;-65
2023/08/18 00:42:53;;;;;;;;;;;20.50;71.60;;;;;;5113495;28;20010;-65
2023/08/18 00:45:19;;;;;;;;;;;20.50;71.60;;;;;;5113316;28;19934;-65
2023/08/18 00:47:44;;;;;;;;;;;20.50;71.60;;;;;;5114468;28;19919;-65
2023/08/18 00:50:11;;;;;;;;;;;20.60;71.70;;;;;;5114284;28;19920;-65
2023/08/18 00:52:37;;;;;;;;;;;20.50;71.60;;;;;;5113203;28;20263;-65
2023/08/18 00:55:03;;;;;;;;;;;20.50;71.60;;;;;;5113379;28;20010;-65
2023/08/18 00:57:29;;;;;;;;;;;20.50;71.60;;;;;;5114237;28;20065;-65
2023/08/18 00:59:55;;;;;;;;;;;20.50;71.60;;;;;;5112952;28;20418;-66
2023/08/18 01:02:21;;;;;;;;;;;20.50;71.60;;;;;;5113003;28;19920;-65
2023/08/18 01:04:46;;;;;;;;;;;20.50;71.60;;;;;;5113141;28;20061;-70
2023/08/18 01:07:11;;;;;;;;;;;20.50;71.60;;;;;;5112594;28;20328;-70
2023/08/18 01:09:37;;;;;;;;;;;20.60;71.60;;;;;;5112956;28;19920;-65
2023/08/18 01:12:11;;;;;;;;;;;20.50;71.60;;;;;;5112595;28;19959;-65
2023/08/18 01:14:45;;;;;;;;;;;20.50;71.60;;;;;;5112870;28;19920;-70
2023/08/18 01:17:17;;;;;;;;;;;20.50;71.60;;;;;;5112444;28;19966;-65
2023/08/18 01:19:42;;;;;;;;;;;20.50;71.60;;;;;;5113767;28;20434;-65
2023/08/18 01:22:11;;;;;;;;;;;20.50;71.60;;;;;;5112659;28;20014;-65
2023/08/18 01:24:38;;;;;;;;;;;20.50;71.60;;;;;;5112739;28;20172;-65
2023/08/18 01:27:04;;;;;;;;;;;20.50;71.60;;;;;;5112284;28;20007;-65
2023/08/18 01:29:29;;;;;;;;;;;20.50;71.60;;;;;;5112573;28;20385;-65
2023/08/18 01:31:58;;;;;;;;;;;20.50;71.60;;;;;;5113416;28;19926;-65
2023/08/18 01:34:25;;;;;;;;;;;20.50;71.60;;;;;;5113444;28;19926;-65
2023/08/18 01:36:51;;;;;;;;;;;20.50;71.60;;;;;;5113366;28;20386;-65
2023/08/18 01:39:18;;;;;;;;;;;20.50;72.30;;;;;;5113488;28;19919;-65
2023/08/18 01:41:44;;;;;;;;;;;20.50;71.60;;;;;;5112437;28;19924;-65
2023/08/18 01:44:13;;;;;;;;;;;20.50;71.60;;;;;;5112088;28;20379;-65
2023/08/18 01:46:39;;;;;;;;;;;20.50;71.60;;;;;;5112084;28;20003;-65
2023/08/18 01:49:04;;;;;;;;;;;20.50;71.60;;;;;;5111769;28;20319;-65
2023/08/18 01:51:30;;;;;;;;;;;20.50;71.60;;;;;;5112224;28;20378;-70
2023/08/18 01:53:55;;;;;;;;;;;20.50;71.60;;;;;;5112156;28;19920;-65
2023/08/18 01:56:21;;;;;;;;;;;20.50;71.60;;;;;;5113141;28;19919;-65
2023/08/18 01:58:46;;;;;;;;;;;20.50;71.60;;;;;;5111839;28;20203;-65
2023/08/18 02:01:12;;;;;;;;;;;20.50;71.60;;;;;;5111802;28;20447;-65
2023/08/18 02:03:38;;;;;;;;;;;20.50;71.60;;;;;;5111927;28;19965;-65
2023/08/18 02:06:03;;;;;;;;;;;20.50;71.60;;;;;;5113010;28;19969;-65
2023/08/18 02:08:28;;;;;;;;;;;20.50;71.50;;;;;;5113028;28;19926;-65
2023/08/18 02:11:00;;;;;;;;;;;20.50;71.50;;;;;;5111995;28;19984;-65
2023/08/18 02:13:25;;;;;;;;;;;20.50;71.50;;;;;;5112889;28;19919;-65
2023/08/18 02:15:51;;;;;;;;;;;20.40;71.50;;;;;;5111648;28;20264;-65
2023/08/18 02:18:16;;;;;;;;;;;20.40;71.50;;;;;;5111324;28;19923;-65
2023/08/18 02:20:42;;;;;;;;;;;20.40;72.30;;;;;;5111466;28;20293;-65
2023/08/18 02:23:07;;;;;;;;;;;20.40;71.50;;;;;;5111545;28;19934;-65
2023/08/18 02:25:33;;;;;;;;;;;20.50;71.60;;;;;;5111736;28;20336;-65
2023/08/18 02:27:58;;;;;;;;;;;20.50;71.60;;;;;;5111470;28;19978;-65
2023/08/18 02:30:24;;;;;;;;;;;20.40;71.50;;;;;;5111654;28;19920;-65
2023/08/18 02:32:49;;;;;;;;;;;20.40;71.50;;;;;;5111011;28;19969;-65
2023/08/18 02:35:15;;;;;;;;;;;20.40;71.50;;;;;;5111287;28;20362;-65
2023/08/18 02:37:40;;;;;;;;;;;20.40;71.50;;;;;;5112561;28;19924;-65
2023/08/18 02:40:06;;;;;;;;;;;20.50;71.60;;;;;;5111599;28;19981;-70
2023/08/18 02:42:33;;;;;;;;;;;20.50;71.60;;;;;;5112685;28;20366;-70
2023/08/18 02:44:59;;;;;;;;;;;20.40;71.50;;;;;;5112722;28;19919;-70
2023/08/18 02:47:25;;;;;;;;;;;20.40;71.50;;;;;;5112551;28;19919;-69
2023/08/18 02:49:51;;;;;;;;;;;20.50;71.60;;;;;;5112455;28;19920;-69
2023/08/18 02:52:16;;;;;;;;;;;20.40;71.50;;;;;;5111785;28;19930;-69
2023/08/18 02:54:42;;;;;;;;;;;20.40;71.50;;;;;;5111643;28;19953;-65
2023/08/18 02:57:07;;;;;;;;;;;20.40;71.50;;;;;;5112697;28;19919;-65
2023/08/18 02:59:33;;;;;;;;;;;20.40;71.50;;;;;;5111029;28;19924;-65
2023/08/18 03:01:58;;;;;;;;;;;20.40;71.50;;;;;;5116381;28;19927;-65
2023/08/18 03:04:24;;;;;;;;;;;20.40;71.50;;;;;;5115435;28;19923;-65
2023/08/18 03:06:49;;;;;;;;;;;20.40;71.50;;;;;;5115252;28;20332;-65
2023/08/18 03:09:16;;;;;;;;;;;20.40;71.50;;;;;;5115406;28;20506;-65
2023/08/18 03:11:42;;;;;;;;;;;20.40;71.50;;;;;;5116431;28;19920;-65
2023/08/18 03:14:08;;;;;;;;;;;20.40;71.50;;;;;;5115306;28;19920;-65
2023/08/18 03:16:33;;;;;;;;;;;20.40;71.50;;;;;;5114856;28;20014;-65
2023/08/18 03:18:59;;;;;;;;;;;20.40;71.50;;;;;;5114517;28;19974;-65
2023/08/18 03:21:24;;;;;;;;;;;20.40;71.50;;;;;;5114714;28;19919;-65
2023/08/18 03:23:50;;;;;;;;;;;20.40;71.50;;;;;;5114766;28;19920;-65
2023/08/18 03:26:15;;;;;;;;;;;20.40;72.20;;;;;;5115944;28;19919;-65
2023/08/18 03:28:41;;;;;;;;;;;20.40;71.50;;;;;;5115136;28;19980;-65
2023/08/18 03:31:07;;;;;;;;;;;20.40;71.50;;;;;;5114557;28;19920;-65
2023/08/18 03:33:33;;;;;;;;;;;20.40;71.50;;;;;;5114931;28;19919;-65
2023/08/18 03:35:58;;;;;;;;;;;20.40;71.50;;;;;;5115795;28;19920;-70
2023/08/18 03:38:24;;;;;;;;;;;20.40;71.50;;;;;;5114428;28;19924;-65
2023/08/18 03:40:56;;;;;;;;;;;20.40;71.60;;;;;;5114706;28;20019;-65
2023/08/18 03:43:21;;;;;;;;;;;20.40;71.50;;;;;;5114694;28;20477;-65
2023/08/18 03:45:47;;;;;;;;;;;20.40;71.50;;;;;;5114395;28;20044;-70
2023/08/18 03:48:12;;;;;;;;;;;20.40;71.60;;;;;;5115607;28;20006;-65
2023/08/18 03:50:38;;;;;;;;;;;20.40;71.50;;;;;;5114490;28;19936;-65
2023/08/18 03:53:04;;;;;;;;;;;20.40;71.60;;;;;;5115430;28;20339;-65
2023/08/18 03:55:29;;;;;;;;;;;20.40;71.60;;;;;;5115415;28;20007;-70
2023/08/18 03:57:55;;;;;;;;;;;20.40;71.60;;;;;;5114006;28;19923;-70
2023/08/18 04:00:20;;;;;;;;;;;20.40;71.50;;;;;;5114389;28;19959;-65
2023/08/18 04:02:46;;;;;;;;;;;20.40;71.60;;;;;;5114231;28;19974;-65
2023/08/18 04:05:12;;;;;;;;;;;20.40;71.60;;;;;;5113994;28;19920;-65
2023/08/18 04:07:37;;;;;;;;;;;20.40;71.60;;;;;;5113897;28;20028;-65
2023/08/18 04:10:03;;;;;;;;;;;20.40;71.60;;;;;;5113436;28;19920;-65
2023/08/18 04:12:31;;;;;;;;;;;20.40;71.60;;;;;;5113781;28;20015;-65
2023/08/18 04:14:57;;;;;;;;;;;20.30;71.50;;;;;;5114111;28;20406;-65
2023/08/18 04:17:22;;;;;;;;;;;20.30;71.50;;;;;;5147804;27;19967;-65
2023/08/18 04:19:47;;;;;;;;;;;20.40;71.60;;;;;;5113932;28;20026;-65
2023/08/18 04:22:13;;;;;;;;;;;20.40;71.60;;;;;;5113646;28;20366;-66
2023/08/18 04:24:39;;;;;;;;;;;20.40;71.60;;;;;;5113972;28;19963;-65
2023/08/18 04:27:04;;;;;;;;;;;20.30;71.50;;;;;;5113554;28;19969;-65
2023/08/18 04:29:29;;;;;;;;;;;20.30;71.50;;;;;;5113740;28;19995;-65
2023/08/18 04:31:55;;;;;;;;;;;20.30;71.50;;;;;;5113771;28;19920;-65
2023/08/18 04:34:21;;;;;;;;;;;20.30;71.50;;;;;;5113390;28;19927;-64
2023/08/18 04:36:46;;;;;;;;;;;20.30;71.60;;;;;;5113690;28;20289;-65
2023/08/18 04:39:15;;;;;;;;;;;20.30;71.50;;;;;;5114926;28;19919;-65
2023/08/18 04:41:40;;;;;;;;;;;20.40;71.60;;;;;;5114763;28;19924;-65
2023/08/18 04:44:06;;;;;;;;;;;20.30;71.50;;;;;;5113422;28;19927;-65
2023/08/18 04:46:31;;;;;;;;;;;20.30;71.50;;;;;;5113495;28;19926;-65
2023/08/18 04:48:57;;;;;;;;;;;20.30;71.50;;;;;;5113358;28;19966;-65
2023/08/18 04:51:23;;;;;;;;;;;20.30;71.60;;;;;;5113397;28;19968;-65
2023/08/18 04:53:49;;;;;;;;;;;20.30;71.60;;;;;;5112931;28;19919;-65
2023/08/18 04:56:15;;;;;;;;;;;20.30;71.60;;;;;;5113269;28;19926;-65
2023/08/18 04:58:40;;;;;;;;;;;20.30;71.60;;;;;;5114048;28;19920;-65
2023/08/18 05:01:06;;;;;;;;;;;20.30;71.60;;;;;;5113216;28;20010;-65
2023/08/18 05:03:33;;;;;;;;;;;20.30;71.60;;;;;;5095770;28;20404;-65
2023/08/18 05:06:02;;;;;;;;;;;20.30;72.30;;;;;;5114145;28;19920;-65
2023/08/18 05:08:28;;;;;;;;;;;20.30;71.60;;;;;;5113115;28;19920;-70
2023/08/18 05:10:56;;;;;;;;;;;20.30;71.60;;;;;;5112592;28;19981;-65
2023/08/18 05:13:22;;;;;;;;;;;20.30;71.60;;;;;;5113986;28;19919;-65
2023/08/18 05:15:48;;;;;;;;;;;20.30;71.60;;;;;;5112798;28;20319;-65
2023/08/18 05:18:14;;;;;;;;;;;20.30;71.60;;;;;;5112306;28;19924;-65
2023/08/18 05:20:40;;;;;;;;;;;20.30;71.60;;;;;;5113672;28;20332;-65
2023/08/18 05:23:06;;;;;;;;;;;20.30;71.60;;;;;;5112955;28;19946;-65
2023/08/18 05:25:31;;;;;;;;;;;20.30;71.60;;;;;;5112234;28;19920;-65
2023/08/18 05:27:57;;;;;;;;;;;20.30;71.60;;;;;;5112621;28;19924;-65
2023/08/18 05:30:26;;;;;;;;;;;20.30;71.60;;;;;;5112352;28;19920;-65
2023/08/18 05:32:51;;;;;;;;;;;20.30;71.60;;;;;;5113713;28;19924;-65
2023/08/18 05:35:16;;;;;;;;;;;20.30;71.60;;;;;;5112471;28;19980;-66
2023/08/18 05:37:42;;;;;;;;;;;20.30;71.60;;;;;;5112058;28;19924;-65
2023/08/18 05:40:08;;;;;;;;;;;20.30;71.60;;;;;;5112253;28;19948;-65
2023/08/18 05:42:33;;;;;;;;;;;20.30;71.60;;;;;;5112376;28;19919;-65
2023/08/18 05:44:59;;;;;;;;;;;20.30;71.60;;;;;;5112037;28;20374;-65
2023/08/18 05:47:24;;;;;;;;;;;20.30;71.60;;;;;;5112322;28;20011;-65
2023/08/18 05:49:49;;;;;;;;;;;20.30;71.60;;;;;;5112120;28;19923;-65
2023/08/18 05:52:15;;;;;;;;;;;20.30;71.60;;;;;;5113258;28;19929;-65
2023/08/18 05:54:40;;;;;;;;;;;20.30;71.60;;;;;;5112175;28;20421;-65
2023/08/18 05:57:06;;;;;;;;;;;20.30;71.60;;;;;;5111758;28;20333;-67
2023/08/18 05:59:32;;;;;;;;;;;20.30;71.60;;;;;;5111710;28;19993;-67
2023/08/18 06:01:57;;;;;;;;;;;20.30;72.30;;;;;;5112985;28;19920;-67
2023/08/18 06:04:23;;;;;;;;;;;20.30;71.60;;;;;;5112101;28;20351;-71
2023/08/18 06:06:48;;;;;;;;;;;20.30;71.60;;;;;;5111695;28;19919;-65
2023/08/18 06:09:14;;;;;;;;;;;20.20;71.50;;;;;;5111937;28;19978;-65
2023/08/18 06:11:39;;;;;;;;;;;20.30;71.60;;;;;;5112838;28;19966;-67
2023/08/18 06:14:04;;;;;;;;;;;20.30;71.60;;;;;;5113066;28;20208;-65
2023/08/18 06:16:30;;;;;;;;;;;20.30;71.60;;;;;;5111660;28;19926;-66
2023/08/18 06:18:55;;;;;;;;;;;20.30;71.60;;;;;;5111441;28;19931;-65
2023/08/18 06:21:21;;;;;;;;;;;20.30;71.60;;;;;;5111450;28;19920;-65
2023/08/18 06:23:47;;;;;;;;;;;20.30;71.60;;;;;;5111658;28;19924;-65
2023/08/18 06:26:12;;;;;;;;;;;20.30;71.60;;;;;;5111719;28;19942;-66
2023/08/18 06:28:38;;;;;;;;;;;20.30;71.60;;;;;;5111696;28;19927;-65
2023/08/18 06:31:04;;;;;;;;;;;20.30;71.60;;;;;;5112924;28;19920;-65
2023/08/18 06:33:30;;;;;;;;;;;20.30;71.60;;;;;;5112800;28;19931;-65
2023/08/18 06:35:55;;;;;;;;;;;20.30;71.60;;;;;;5150156;27;19920;-65
2023/08/18 06:38:21;;;;;;;;;;;20.30;71.70;;;;;;5115612;28;19946;-65
2023/08/18 06:40:46;;;;;;;;;;;20.30;71.70;;;;;;5150637;27;19923;-64
2023/08/18 06:43:12;;;;;;;;;;;20.30;71.70;;;;;;5115468;28;20462;-65
2023/08/18 06:45:37;;;;;;;;;;;20.30;71.70;;;;;;5115504;28;19923;-65
2023/08/18 06:48:03;;;;;;;;;;;20.30;71.70;;;;;;5116948;28;19924;-65
2023/08/18 06:50:28;;;;;;;;;;;20.30;71.70;;;;;;5116882;28;19978;-66
2023/08/18 06:52:54;;;;;;;;;;;20.30;71.70;;;;;;5115618;28;19919;-70
2023/08/18 06:55:20;;;;;;;;;;;20.30;71.70;;;;;;5115326;28;19967;-65
2023/08/18 06:57:45;;;;;;;;;;;20.30;71.70;;;;;;5115346;28;19924;-65
2023/08/18 07:00:11;;;;;;;;;;;20.30;71.70;;;;;;5115595;28;19920;-65
2023/08/18 07:02:36;;;;;;;;;;;20.30;71.70;;;;;;5115285;28;19959;-65
2023/08/18 07:05:05;;;;;;;;;;;20.30;71.70;;;;;;5115507;28;19962;-65
2023/08/18 07:07:32;;;;;;;;;;;20.30;71.70;;;;;;5115408;28;19980;-65
2023/08/18 07:09:57;;;;;;;;;;;20.30;71.70;;;;;;5115062;28;19920;-65
2023/08/18 07:12:23;;;;;;;;;;;20.30;71.80;;;;;;5115349;28;20256;-65
2023/08/18 07:14:48;;;;;;;;;;;20.30;71.80;;;;;;5115098;28;19931;-65
2023/08/18 07:17:14;;;;;;;;;;;20.30;71.80;;;;;;5116151;28;20023;-65
2023/08/18 07:19:39;;;;;;;;;;;20.30;71.80;;;;;;5114699;28;19927;-65
2023/08/18 07:22:05;;;;;;;;;;;20.30;71.80;;;;;;5114793;28;19927;-65
2023/08/18 07:24:30;;;;;;;;;;;20.30;71.80;;;;;;5115022;28;20336;-65
2023/08/18 07:26:56;;;;;;;;;;;20.30;71.90;;;;;;5114712;28;19920;-66
2023/08/18 07:29:21;;;;;;;;;;;20.30;71.80;;;;;;5114619;28;19989;-65
2023/08/18 07:31:47;;;;;;;;;;;20.30;71.90;;;;;;5114957;28;19920;-65
2023/08/18 07:34:12;;;;;;;;;;;20.30;71.90;;;;;;5114531;28;19919;-65
2023/08/18 07:36:39;;;;;;;;;;;20.30;71.90;;;;;;5114866;28;19965;-65
2023/08/18 07:39:07;;;;;;;;;;;20.30;71.90;;;;;;5114467;28;19923;-65
2023/08/18 07:41:32;;;;;;;;;;;20.30;71.90;;;;;;5114597;28;19920;-65
2023/08/18 07:43:58;;;;;;;;;;;20.30;71.90;;;;;;5114604;28;19926;-65
2023/08/18 07:46:23;;;;;;;;;;;20.30;71.80;;;;;;5115049;28;19931;-65
2023/08/18 07:48:49;;;;;;;;;;;20.30;71.90;;;;;;5114705;28;20384;-65
2023/08/18 07:51:14;;;;;;;;;;;20.30;72.30;;;;;;5114222;28;20433;-65
2023/08/18 07:53:40;;;;;;;;;;;20.30;71.90;;;;;;5114543;28;19973;-65
2023/08/18 07:56:05;;;;;;;;;;;20.30;71.90;;;;;;5114407;28;19945;-65
2023/08/18 07:58:31;;;;;;;;;;;20.30;71.90;;;;;;5114246;28;19959;-65
2023/08/18 08:00:56;;;;;;;;;;;20.30;71.90;;;;;;5113986;28;19920;-65
2023/08/18 08:03:23;;;;;;;;;;;20.30;71.90;;;;;;5114030;28;19927;-65
2023/08/18 08:05:48;;;;;;;;;;;20.30;71.90;;;;;;5115249;28;19988;-65
2023/08/18 08:08:14;;;;;;;;;;;20.30;71.90;;;;;;5114275;28;19959;-65
2023/08/18 08:10:39;;;;;;;;;;;20.30;71.90;;;;;;5113331;28;19931;-65
2023/08/18 08:13:05;;;;;;;;;;;20.30;71.90;;;;;;5114163;28;19920;-65
2023/08/18 08:15:30;;;;;;;;;;;20.30;72.00;;;;;;5114034;28;20390;-65
2023/08/18 08:17:56;;;;;;;;;;;20.30;72.00;;;;;;5114793;28;19952;-65
2023/08/18 08:20:21;;;;;;;;;;;20.30;72.00;;;;;;5113621;28;20376;-65
2023/08/18 08:22:47;;;;;;;;;;;20.30;72.00;;;;;;5113676;28;19959;-65
2023/08/18 08:25:13;;;;;;;;;;;20.30;72.00;;;;;;5113961;28;20302;-65
2023/08/18 08:27:39;;;;;;;;;;;20.30;72.00;;;;;;5113556;28;19926;-65
2023/08/18 08:30:07;;;;;;;;;;;20.30;72.80;;;;;;5114844;28;19920;-65
2023/08/18 08:32:33;;;;;;;;;;;20.30;72.00;;;;;;5114678;28;20405;-65
2023/08/18 08:34:58;;;;;;;;;;;20.30;72.00;;;;;;5113815;28;19950;-65
2023/08/18 08:37:24;;;;;;;;;;;20.30;72.00;;;;;;5113293;28;19967;-65
2023/08/18 08:39:49;;;;;;;;;;;20.30;72.10;;;;;;5147683;27;19934;-65
2023/08/18 08:42:15;;;;;;;;;;;20.40;72.20;;;;;;5113544;28;20401;-65
2023/08/18 08:44:40;;;;;;;;;;;20.30;72.80;;;;;;5114480;28;19920;-65
2023/08/18 08:47:06;;;;;;;;;;;20.30;72.10;;;;;;5113387;28;20019;-65
2023/08/18 08:49:32;;;;;;;;;;;20.40;72.30;;;;;;5113147;28;20425;-65
2023/08/18 08:52:01;;;;;;;;;;;20.30;72.30;;;;;;5113348;28;19920;-65
2023/08/18 08:54:28;;;;;;;;;;;20.30;72.10;;;;;;5113318;28;19931;-65
2023/08/18 08:56:54;;;;;;;;;;;20.30;72.00;;;;;;5113854;28;19944;-65
2023/08/18 08:59:20;;;;;;;;;;;20.40;72.00;;;;;;5113438;28;19928;-65
2023/08/18 09:01:46;;;;;;;;;;;20.30;72.00;;;;;;5113252;28;19920;-70
2023/08/18 09:04:11;;;;;;;;;;;20.30;72.00;;;;;;5112893;28;20397;-66
2023/08/18 09:06:37;;;;;;;;;;;20.40;72.00;;;;;;5113157;28;19959;-65
2023/08/18 09:09:03;;;;;;;;;;;20.40;72.00;;;;;;5114208;28;19920;-66
2023/08/18 09:11:45;;;;;;;;;;;20.30;72.00;;;;;;5114010;28;19923;-65
2023/08/18 09:14:12;;;;;;;;;;;20.30;72.00;;;;;;5112971;28;19990;-65
2023/08/18 09:16:38;;;;;;;;;;;20.40;72.20;;;;;;5112592;28;19976;-65
2023/08/18 09:19:03;;;;;;;;;;;20.40;72.10;;;;;;5113473;28;19924;-66
2023/08/18 09:21:29;;;;;;;;;;;20.30;72.20;;;;;;5112489;28;20298;-65
2023/08/18 09:23:56;;;;;;;;;;;20.30;72.30;;;;;;5112618;28;19919;-65
2023/08/18 09:26:21;;;;;;;;;;;20.40;72.30;;;;;;5112763;28;19928;-65
2023/08/18 09:28:47;;;;;;;;;;;20.30;72.30;;;;;;5112513;28;19924;-65
2023/08/18 09:31:12;;;;;;;;;;;20.40;72.30;;;;;;5112282;28;19927;-65
2023/08/18 09:33:38;;;;;;;;;;;20.30;72.30;;;;;;5112261;28;19920;-65
2023/08/18 09:36:03;;;;;;;;;;;20.30;72.30;;;;;;5112620;28;19939;-70
2023/08/18 09:38:37;;;;;;;;;;;20.40;72.40;;;;;;5113384;28;19928;-65
2023/08/18 09:41:03;;;;;;;;;;;20.40;72.50;;;;;;5112229;28;19931;-65
2023/08/18 09:43:28;;;;;;;;;;;20.30;72.40;;;;;;5113251;28;19920;-65
2023/08/18 09:45:54;;;;;;;;;;;20.40;72.40;;;;;;5113308;28;19920;-65
2023/08/18 09:48:22;;;;;;;;;;;20.30;72.40;;;;;;5112255;28;20022;-65
2023/08/18 09:50:49;;;;;;;;;;;20.40;72.50;;;;;;5112005;28;19926;-65
2023/08/18 09:53:15;;;;;;;;;;;20.40;72.50;;;;;;5112196;28;20374;-65
2023/08/18 09:55:44;;;;;;;;;;;20.40;72.50;;;;;;5113220;28;19921;-64
2023/08/18 10:00:56;;;;;;;;;;;20.30;72.60;;;;;;5151542;27;20366;-65
2023/08/18 10:03:24;;;;;;;;;;;20.40;72.80;;;;;;5133161;27;20290;-65
2023/08/18 10:05:50;;;;;;;;;;;20.40;72.60;;;;;;5133162;27;19947;-65
2023/08/18 10:08:16;;;;;;;;;;;20.40;72.70;;;;;;5133098;27;19969;-65
2023/08/18 10:10:41;;;;;;;;;;;20.40;72.70;;;;;;5132996;27;20359;-64
2023/08/18 10:13:08;;;;;;;;;;;20.40;72.70;;;;;;5132699;27;20301;-65
2023/08/18 10:15:34;;;;;;;;;;;20.40;73.00;;;;;;5132590;27;20010;-65
2023/08/18 10:17:59;;;;;;;;;;;20.40;72.90;;;;;;5132945;27;19953;-65
2023/08/18 10:20:25;;;;;;;;;;;20.40;72.90;;;;;;5151069;27;19927;-65
2023/08/18 10:22:51;;;;;;;;;;;20.40;72.90;;;;;;5151036;27;19923;-64
2023/08/18 10:25:25;;;;;;;;;;;20.40;72.90;;;;;;5151026;27;19927;-65
2023/08/18 10:27:50;;;;;;;;;;;20.40;73.10;;;;;;5132524;27;19919;-65
2023/08/18 10:33:00;;;;;;;;;;;20.40;72.80;;;;;;5110397;27;19945;-65
2023/08/18 10:35:27;;;;;;;;;;;20.40;72.90;;;;;;5109287;28;19928;-65
2023/08/18 10:37:53;;;;;;;;;;;20.40;72.90;;;;;;5110360;28;20022;-65
2023/08/18 10:40:27;;;;;;;;;;;20.40;73.20;;;;;;5109128;28;20434;-65
2023/08/18 10:42:56;;;;;;;;;;;20.40;73.10;;;;;;5108827;28;19981;-65
2023/08/18 10:45:23;;;;;;;;;;;20.40;73.00;;;;;;5109098;28;20010;-65
2023/08/18 10:47:49;;;;;;;;;;;20.40;73.10;;;;;;5108994;28;20428;-65
2023/08/18 10:50:14;;;;;;;;;;;20.40;73.00;;;;;;5108579;28;19920;-65
2023/08/18 10:52:40;;;;;;;;;;;20.40;73.80;;;;;;5108594;28;19969;-65
2023/08/18 10:55:06;;;;;;;;;;;20.40;73.10;;;;;;5109786;28;19920;-65
2023/08/18 10:57:33;;;;;;;;;;;20.40;73.20;;;;;;5108628;28;19920;-65
2023/08/18 10:59:59;;;;;;;;;;;20.40;73.10;;;;;;5108846;28;19924;-65
2023/08/18 11:02:25;;;;;;;;;;;20.40;73.10;;;;;;5108341;28;19995;-65
2023/08/18 11:04:51;;;;;;;;;;;20.40;73.40;;;;;;5108423;28;19926;-65
2023/08/18 11:07:18;;;;;;;;;;;20.40;73.90;;;;;;5109640;28;19920;-65
2023/08/18 11:09:44;;;;;;;;;;;20.40;73.30;;;;;;5109594;28;20019;-65
2023/08/18 11:12:10;;;;;;;;;;;20.40;73.30;;;;;;5108106;28;19931;-65
2023/08/18 11:14:35;;;;;;;;;;;20.40;73.20;;;;;;5108541;28;19920;-65
2023/08/18 11:17:02;;;;;;;;;;;20.40;73.30;;;;;;5108264;28;19920;-65
2023/08/18 11:19:27;;;;;;;;;;;20.40;73.20;;;;;;5108480;28;20364;-65
2023/08/18 11:21:54;;;;;;;;;;;20.40;73.40;;;;;;5109303;28;19926;-65
2023/08/18 11:24:20;;;;;;;;;;;20.40;73.40;;;;;;5109356;28;19924;-65
2023/08/18 11:26:47;;;;;;;;;;;20.40;73.40;;;;;;5107911;28;19924;-65
2023/08/18 11:29:13;;;;;;;;;;;20.40;73.30;;;;;;5108279;28;20014;-65
2023/08/18 11:31:39;;;;;;;;;;;20.40;73.40;;;;;;5107682;28;20031;-65
2023/08/18 11:34:05;;;;;;;;;;;20.40;73.40;;;;;;5090911;28;20291;-65
2023/08/18 11:36:32;;;;;;;;;;;20.40;73.40;;;;;;5108099;28;20278;-65
2023/08/18 11:39:02;;;;;;;;;;;20.40;73.40;;;;;;5108117;28;19927;-65
2023/08/18 11:41:35;;;;;;;;;;;20.40;73.70;;;;;;5108366;28;19963;-65
2023/08/18 11:44:00;;;;;;;;;;;20.40;73.60;;;;;;5095791;28;19951;-65
2023/08/18 11:46:26;;;;;;;;;;;20.50;73.70;;;;;;5094394;28;19967;-65
2023/08/18 11:48:52;;;;;;;;;;;20.40;73.90;;;;;;5094016;28;19920;-66
2023/08/18 11:51:17;;;;;;;;;;;20.50;74.00;;;;;;5093181;28;19928;-65
2023/08/18 11:53:43;;;;;;;;;;;20.50;73.80;;;;;;5095233;28;19924;-65
2023/08/18 11:56:09;;;;;;;;;;;20.50;73.70;;;;;;5094078;28;19931;-64
2023/08/18 11:58:34;;;;;;;;;;;20.50;73.90;;;;;;5095187;28;19920;-65
2023/08/18 12:01:02;;;;;;;;;;;20.40;73.80;;;;;;5094128;28;19970;-65
2023/08/18 12:03:28;;;;;;;;;;;20.50;73.80;;;;;;5094932;28;19927;-65
2023/08/18 12:05:55;;;;;;;;;;;20.50;73.80;;;;;;5095012;28;19920;-65
2023/08/18 12:08:21;;;;;;;;;;;20.50;73.80;;;;;;5093880;28;19924;-65
2023/08/18 12:10:49;;;;;;;;;;;20.50;73.90;;;;;;5093747;28;19920;-65
2023/08/18 12:13:15;;;;;;;;;;;20.50;74.00;;;;;;5093734;28;19927;-65
2023/08/18 12:15:41;;;;;;;;;;;20.50;73.90;;;;;;5093773;28;19927;-65
2023/08/18 12:18:07;;;;;;;;;;;20.50;74.10;;;;;;5094857;28;20363;-65
2023/08/18 12:20:32;;;;;;;;;;;20.50;74.10;;;;;;5094766;28;19920;-65
2023/08/18 12:22:58;;;;;;;;;;;20.50;74.20;;;;;;5093672;28;19943;-65
2023/08/18 12:25:24;;;;;;;;;;;20.50;74.10;;;;;;5093283;28;20393;-65
2023/08/18 12:27:49;;;;;;;;;;;20.50;74.30;;;;;;5093558;28;20011;-69
2023/08/18 12:30:15;;;;;;;;;;;20.50;74.50;;;;;;5093539;28;19942;-65
2023/08/18 12:32:42;;;;;;;;;;;20.50;74.40;;;;;;5092935;28;19977;-65
2023/08/18 12:35:07;;;;;;;;;;;20.50;74.20;;;;;;5093111;28;19924;-65
2023/08/18 12:37:33;;;;;;;;;;;20.50;74.30;;;;;;5093371;28;19920;-65
2023/08/18 12:39:58;;;;;;;;;;;20.50;74.40;;;;;;5094161;28;20344;-65
2023/08/18 12:42:24;;;;;;;;;;;20.50;74.40;;;;;;5092994;28;19942;-65
2023/08/18 12:44:50;;;;;;;;;;;20.50;74.40;;;;;;5093184;28;20010;-65
2023/08/18 12:47:16;;;;;;;;;;;20.50;74.40;;;;;;5093252;28;19920;-65
2023/08/18 12:49:41;;;;;;;;;;;20.50;74.40;;;;;;5127288;27;19920;-65
2023/08/18 12:52:07;;;;;;;;;;;20.50;74.30;;;;;;5092675;28;19924;-65
2023/08/18 12:54:32;;;;;;;;;;;20.50;74.50;;;;;;5092014;28;19989;-66
2023/08/18 12:56:58;;;;;;;;;;;20.60;74.50;;;;;;5093876;28;19927;-65
2023/08/18 12:59:23;;;;;;;;;;;20.60;74.60;;;;;;5092963;28;20264;-69
2023/08/18 13:01:50;;;;;;;;;;;20.60;74.70;;;;;;5094058;28;19931;-65
2023/08/18 13:04:15;;;;;;;;;;;20.60;74.80;;;;;;5093954;28;19926;-65
2023/08/18 13:06:40;;;;;;;;;;;20.60;74.80;;;;;;5092725;28;20341;-66
2023/08/18 13:09:06;;;;;;;;;;;20.60;74.70;;;;;;5093837;28;19920;-65
2023/08/18 13:11:33;;;;;;;;;;;20.60;75.10;;;;;;5092400;28;20452;-65
2023/08/18 13:13:59;;;;;;;;;;;20.60;74.80;;;;;;5092733;28;20278;-65
2023/08/18 13:16:24;;;;;;;;;;;20.60;74.90;;;;;;5092308;28;19977;-65
2023/08/18 13:18:50;;;;;;;;;;;20.60;74.90;;;;;;5092575;28;19920;-67
2023/08/18 13:21:16;;;;;;;;;;;20.60;75.00;;;;;;5092607;28;19921;-65
2023/08/18 13:23:42;;;;;;;;;;;20.60;75.00;;;;;;5092290;28;19935;-65
2023/08/18 13:26:07;;;;;;;;;;;20.60;74.90;;;;;;5093399;28;19920;-69
2023/08/18 13:28:33;;;;;;;;;;;20.60;74.90;;;;;;5092370;28;19964;-65
2023/08/18 13:30:58;;;;;;;;;;;20.60;74.90;;;;;;5091889;28;19925;-66
2023/08/18 13:33:24;;;;;;;;;;;20.60;75.10;;;;;;5093453;28;19923;-65
2023/08/18 13:35:49;;;;;;;;;;;20.60;75.00;;;;;;5092221;28;20375;-70
2023/08/18 13:38:15;;;;;;;;;;;20.60;75.00;;;;;;5091879;28;19920;-65
2023/08/18 13:40:40;;;;;;;;;;;20.60;75.10;;;;;;5093072;28;19942;-65
2023/08/18 13:43:06;;;;;;;;;;;20.60;74.90;;;;;;5091822;28;20004;-65
2023/08/18 13:45:31;;;;;;;;;;;20.60;74.90;;;;;;5092086;28;19947;-65
2023/08/18 13:47:57;;;;;;;;;;;20.70;75.10;;;;;;5092967;28;20336;-65
2023/08/18 13:50:22;;;;;;;;;;;20.70;75.10;;;;;;5092040;28;19926;-65
2023/08/18 13:52:48;;;;;;;;;;;20.70;75.10;;;;;;5092850;28;19924;-65
2023/08/18 13:55:14;;;;;;;;;;;20.70;75.10;;;;;;5092998;28;19920;-65
2023/08/18 13:57:39;;;;;;;;;;;20.70;75.20;;;;;;5091808;28;19963;-64
2023/08/18 14:00:05;;;;;;;;;;;20.70;75.30;;;;;;5091619;28;20405;-65
2023/08/18 14:02:30;;;;;;;;;;;20.70;75.40;;;;;;5091669;28;19943;-65
2023/08/18 14:04:56;;;;;;;;;;;20.70;75.50;;;;;;5091807;28;19920;-65
2023/08/18 14:07:22;;;;;;;;;;;20.70;75.60;;;;;;5092518;28;19920;-65
2023/08/18 14:09:47;;;;;;;;;;;20.70;75.60;;;;;;5125941;27;19927;-65
2023/08/18 14:12:13;;;;;;;;;;;20.70;75.60;;;;;;5093006;28;19924;-65
2023/08/18 14:14:38;;;;;;;;;;;20.70;75.80;;;;;;5092559;28;19973;-65